Time;durP1;ratioP1;P1;durP2;ratioP2;P2;SDS_P1;SDS_P2;PMS_P1;PMS_P2;Temp;Humidity;BMP_temperature;BMP_pressure;BME280_temperature;BME280_humidity;BME280_pressure;Samples;Min_cycle;Max_cycle;Signal;HPM_P1;HPM_P2
2022/05/14 00:01:01;;;;;;;23.48;4.90;;;;;;;13.12;76.06;102122.09;4940542;28;21756;-60
2022/05/14 00:03:29;;;;;;;20.67;5.30;;;;;;;13.10;76.36;102120.28;4953965;28;20087;-58
2022/05/14 00:05:57;;;;;;;23.30;5.53;;;;;;;13.09;76.35;102114.16;4955873;28;20773;-59
2022/05/14 00:08:23;;;;;;;18.13;5.03;;;;;;;13.08;76.63;102111.50;4958688;28;20309;-59
2022/05/14 00:13:33;;;;;;;26.23;5.70;;;;;;;13.06;76.66;102115.78;4959948;28;20053;-58
2022/05/14 00:15:59;;;;;;;26.25;5.53;;;;;;;13.04;76.76;102107.03;4948980;28;20344;-59
2022/05/14 00:18:24;;;;;;;22.88;5.65;;;;;;;13.05;77.10;102109.72;4955684;28;20522;-60
2022/05/14 00:20:51;;;;;;;18.30;5.15;;;;;;;13.02;76.86;102107.88;4951902;28;20125;-58
2022/05/14 00:23:17;;;;;;;24.05;5.47;;;;;;;13.01;77.06;102115.69;4953710;28;20057;-64
2022/05/14 00:25:43;;;;;;;21.10;5.63;;;;;;;13.01;76.78;102115.69;4959608;28;20238;-60
2022/05/14 00:28:09;;;;;;;23.60;5.43;;;;;;;12.99;77.27;102114.81;4957132;28;20085;-59
2022/05/14 00:30:36;;;;;;;21.65;5.60;;;;;;;13.00;77.14;102116.53;4957000;28;20462;-59
2022/05/14 00:33:02;;;;;;;24.98;6.00;;;;;;;12.97;77.04;102117.38;4906245;28;20641;-61
2022/05/14 00:35:28;;;;;;;19.58;5.82;;;;;;;12.93;77.25;102105.03;4914268;28;20372;-60
2022/05/14 00:37:54;;;;;;;31.02;6.35;;;;;;;12.92;77.67;102105.91;4913990;28;20458;-59
2022/05/14 00:40:27;;;;;;;20.30;5.63;;;;;;;12.94;77.88;102108.53;4927280;28;20047;-58
2022/05/14 00:42:52;;;;;;;26.43;5.70;;;;;;;12.95;77.73;102120.78;4913109;28;20411;-60
2022/05/14 00:45:19;;;;;;;24.70;6.30;;;;;;;12.93;77.73;102110.28;4921572;28;20051;-64
2022/05/14 00:47:48;;;;;;;22.92;5.90;;;;;;;12.91;78.11;102105.88;4923337;28;20400;-60
2022/05/14 00:50:24;;;;;;;23.92;6.13;;;;;;;12.89;77.91;102097.97;4910606;28;20602;-59
2022/05/14 00:52:53;;;;;;;20.52;5.63;;;;;;;12.89;77.62;102099.72;4917081;28;20051;-60
2022/05/14 00:55:19;;;;;;;30.17;6.03;;;;;;;12.86;77.79;102090.06;4935666;28;20046;-59
2022/05/14 00:57:46;;;;;;;22.15;6.15;;;;;;;12.83;78.13;102095.22;4923726;28;20047;-60
2022/05/14 01:00:16;;;;;;;21.27;6.25;;;;;;;12.78;78.39;102095.97;4910987;28;20534;-59
2022/05/14 01:02:41;;;;;;;17.95;5.40;;;;;;;12.79;77.85;102111.72;4913315;28;20043;-60
2022/05/14 01:05:09;;;;;;;27.85;6.35;;;;;;;12.76;78.66;102101.16;4911032;28;20043;-59
2022/05/14 01:07:37;;;;;;;21.92;6.63;;;;;;;12.75;79.02;102109.84;4921933;28;20058;-59
2022/05/14 01:10:15;;;;;;;28.58;6.68;;;;;;;12.75;79.29;102107.22;4919835;28;20122;-59
2022/05/14 01:12:52;;;;;;;27.67;7.30;;;;;;;12.73;79.09;102113.28;4904208;28;20047;-60
2022/05/14 01:15:21;;;;;;;24.10;6.30;;;;;;;12.75;78.47;102117.69;4920497;28;20047;-60
2022/05/14 01:17:48;;;;;;;29.60;6.88;;;;;;;12.72;78.28;102107.16;4915898;28;20047;-59
2022/05/14 01:20:16;;;;;;;22.27;6.03;;;;;;;12.69;78.54;102100.97;4925201;28;20373;-59
2022/05/14 01:23:06;;;;;;;24.50;6.28;;;;;;;12.62;78.51;102102.56;4914865;28;20439;-60
2022/05/14 01:28:32;;;;;;;17.58;5.60;;;;;;;12.62;78.64;102102.56;4917158;28;20285;-60
2022/05/14 18:00:31;;;;;;;15.15;4.80;;;;;;;20.06;44.19;102233.31;4988614;27;20366;-57
2022/05/14 18:02:57;;;;;;;15.23;5.10;;;;;;;20.17;44.01;102232.38;4965710;28;20351;-59
2022/05/14 18:05:24;;;;;;;16.38;4.65;;;;;;;20.12;44.16;102228.00;4932608;28;69823;-60
2022/05/14 18:07:49;;;;;;;16.40;4.88;;;;;;;20.12;44.36;102230.66;4944522;28;20133;-60
2022/05/14 18:10:17;;;;;;;15.07;5.10;;;;;;;19.96;44.91;102231.56;4950229;28;20051;-60
2022/05/14 18:12:42;;;;;;;18.70;5.00;;;;;;;19.86;45.30;102228.09;4938942;28;20705;-60
2022/05/14 18:15:10;;;;;;;14.50;4.63;;;;;;;19.80;45.65;102226.34;4951827;28;20461;-58
2022/05/14 18:17:36;;;;;;;15.98;4.70;;;;;;;19.78;45.98;102228.09;4951756;28;20045;-61
2022/05/14 18:20:01;;;;;;;15.35;4.90;;;;;;;19.83;46.09;102230.72;4934210;28;20358;-60
2022/05/14 18:22:27;;;;;;;20.63;5.65;;;;;;;19.79;46.50;102236.94;4947078;28;20303;-60
2022/05/14 18:24:52;;;;;;;16.48;5.03;;;;;;;19.79;46.00;102231.63;4928147;28;20068;-60
2022/05/14 18:27:28;;;;;;;14.45;4.68;;;;;;;19.78;46.68;102233.41;4942427;28;20455;-60
2022/05/14 18:30:29;;;;;;;15.82;4.80;;;;;;;19.77;46.63;102236.03;4950506;28;20057;-59
2022/05/14 18:33:21;;;;;;;13.13;4.85;;;;;;;19.69;47.01;102229.91;4940885;28;20035;-59
2022/05/14 18:35:51;;;;;;;17.00;5.07;;;;;;;19.48;47.64;102230.84;4933757;28;20069;-59
2022/05/14 18:38:20;;;;;;;14.80;4.72;;;;;;;19.40;47.88;102237.84;4928641;28;20038;-59
2022/05/14 18:40:46;;;;;;;16.77;5.75;;;;;;;19.25;47.84;102225.53;4927018;28;20034;-59
2022/05/14 18:43:15;;;;;;;16.52;5.43;;;;;;;19.17;47.69;102224.66;4931897;28;20097;-60
2022/05/14 18:45:42;;;;;;;16.98;4.72;;;;;;;19.29;47.49;102226.41;4924040;28;20117;-59
2022/05/14 18:48:08;;;;;;;14.13;4.90;;;;;;;19.40;46.91;102220.22;4933201;28;20061;-59
2022/05/14 18:50:34;;;;;;;17.60;4.82;;;;;;;19.50;46.23;102222.91;4927523;28;20603;-60
2022/05/14 18:53:00;;;;;;;17.55;5.18;;;;;;;19.32;46.23;102221.13;4918128;28;20035;-59
2022/05/14 18:55:25;;;;;;;19.48;4.97;;;;;;;19.18;47.25;102214.97;4929526;28;20095;-59
2022/05/14 18:57:52;;;;;;;17.23;4.90;;;;;;;19.08;46.66;102226.44;4923345;28;20514;-59
2022/05/14 19:00:19;;;;;;;15.23;4.70;;;;;;;18.82;47.63;102223.78;4922485;28;20043;-60
2022/05/14 19:02:44;;;;;;;16.83;4.63;;;;;;;18.54;48.83;102226.34;4916626;28;20133;-60
2022/05/14 19:07:55;;;;;;;15.80;5.13;;;;;;;18.59;50.20;102219.38;4933504;28;20053;-60
2022/05/14 19:10:21;;;;;;;16.15;5.00;;;;;;;18.57;49.49;102220.22;4928146;28;20559;-59
2022/05/14 19:12:46;;;;;;;16.70;5.18;;;;;;;18.44;49.68;102221.91;4908810;28;20040;-60
2022/05/14 19:15:12;;;;;;;17.23;5.43;;;;;;;18.30;50.44;102218.34;4923117;28;20150;-59
2022/05/14 19:17:37;;;;;;;19.13;5.38;;;;;;;18.21;50.43;102213.94;4923600;28;20533;-60
2022/05/14 19:20:12;;;;;;;17.10;5.75;;;;;;;18.11;50.33;102219.19;4907925;28;20389;-60
2022/05/14 19:22:37;;;;;;;17.08;5.07;;;;;;;18.07;50.25;102217.41;4916569;28;20049;-60
2022/05/14 19:25:05;;;;;;;23.08;5.60;;;;;;;17.95;51.08;102218.22;4898928;28;20043;-60
2022/05/14 19:27:31;;;;;;;16.25;5.28;;;;;;;17.82;52.04;102222.56;4924289;28;20134;-59
2022/05/14 19:29:57;;;;;;;17.20;5.80;;;;;;;17.72;52.29;102218.13;4919358;28;20688;-60
2022/05/14 19:32:24;;;;;;;18.08;6.10;;;;;;;17.65;52.81;102223.34;4909746;28;20520;-61
2022/05/14 19:34:51;;;;;;;18.17;5.57;;;;;;;17.52;53.85;102222.38;4916099;28;20075;-60
2022/05/14 19:37:23;;;;;;;19.35;5.93;;;;;;;17.39;55.42;102224.03;4916773;28;20081;-60
2022/05/14 19:39:53;;;;;;;17.75;6.10;;;;;;;17.30;55.31;102223.09;4916823;28;20070;-59
2022/05/14 19:42:23;;;;;;;17.75;6.25;;;;;;;17.29;54.75;102219.56;4898046;28;20658;-60
2022/05/14 19:44:55;;;;;;;19.92;6.35;;;;;;;17.22;55.37;102230.06;4911300;28;20943;-59
2022/05/14 19:47:23;;;;;;;19.65;6.18;;;;;;;17.12;56.25;102225.59;4919562;28;20848;-59
2022/05/14 19:49:48;;;;;;;20.83;7.35;;;;;;;17.02;56.33;102235.16;4922026;28;20070;-60
2022/05/14 19:52:14;;;;;;;22.65;6.97;;;;;;;16.97;56.08;102232.50;4920432;28;20689;-59
2022/05/14 19:54:40;;;;;;;19.90;7.38;;;;;;;16.92;56.07;102241.22;4913004;28;20523;-58
2022/05/14 19:57:06;;;;;;;21.60;7.10;;;;;;;16.88;56.27;102234.19;4916100;28;20337;-57
2022/05/14 19:59:32;;;;;;;17.50;6.85;;;;;;;16.83;56.19;102244.66;4918093;28;20192;-59
2022/05/14 20:01:58;;;;;;;19.42;7.22;;;;;;;16.77;57.02;102244.59;4916097;28;20118;-57
2022/05/14 20:04:29;;;;;;;17.60;7.43;;;;;;;16.73;56.62;102249.81;4921647;28;20081;-59
2022/05/14 20:06:55;;;;;;;16.80;6.70;;;;;;;16.67;56.20;102241.84;4912920;28;20043;-59
2022/05/14 20:09:21;;;;;;;19.23;6.60;;;;;;;16.56;56.56;102244.34;4920858;28;20063;-60
2022/05/14 20:11:46;;;;;;;20.02;6.72;;;;;;;16.55;56.51;102250.47;4903475;28;20529;-60
2022/05/14 20:14:12;;;;;;;19.88;7.35;;;;;;;16.49;56.76;102245.16;4912978;28;20043;-59
2022/05/14 20:22:06;;;;;;;20.40;7.25;;;;;;;16.22;58.70;102245.75;4915214;28;20176;-58
2022/05/14 20:24:32;;;;;;;22.05;7.55;;;;;;;16.15;59.01;102252.69;4914899;28;20039;-59
2022/05/14 20:26:57;;;;;;;23.17;7.88;;;;;;;16.10;59.38;102254.34;4907843;28;20475;-60
2022/05/14 20:29:22;;;;;;;18.45;7.25;;;;;;;16.05;59.61;102252.50;4920169;28;20163;-60
2022/05/14 20:31:49;;;;;;;20.40;8.18;;;;;;;15.98;59.63;102250.69;4919919;28;20039;-60
2022/05/14 20:34:14;;;;;;;18.83;8.73;;;;;;;15.91;60.28;102252.34;4920934;28;20684;-60
2022/05/14 20:36:40;;;;;;;18.95;8.45;;;;;;;15.91;60.01;102251.47;4910485;28;20126;-61
2022/05/14 20:39:05;;;;;;;25.85;8.68;;;;;;;15.87;60.17;102250.53;4913718;28;20043;-59
2022/05/14 20:41:30;;;;;;;21.88;9.77;;;;;;;15.83;60.30;102254.00;4919351;28;20512;-59
2022/05/14 20:43:57;;;;;;;23.15;8.82;;;;;;;15.83;60.46;102248.72;4917506;28;20053;-59
2022/05/14 20:46:22;;;;;;;21.60;8.93;;;;;;;15.89;59.81;102251.44;4915153;28;20530;-58
2022/05/14 20:48:47;;;;;;;19.38;8.70;;;;;;;15.91;59.91;102248.84;4910252;28;20134;-60
2022/05/14 20:51:13;;;;;;;22.33;8.75;;;;;;;15.89;60.40;102254.06;4914221;28;20051;-59
2022/05/14 20:53:38;;;;;;;25.05;9.27;;;;;;;15.80;60.63;102265.34;4923502;28;20077;-59
2022/05/14 20:56:04;;;;;;;19.17;9.27;;;;;;;15.77;61.23;102259.16;4909689;28;20515;-59
2022/05/14 20:58:29;;;;;;;21.45;9.10;;;;;;;15.69;61.32;102260.78;4923678;28;20060;-60
2022/05/14 21:00:55;;;;;;;30.33;9.80;;;;;;;15.67;61.33;102254.66;4906059;28;20304;-58
2022/05/14 21:03:20;;;;;;;27.88;10.07;;;;;;;15.68;61.41;102257.28;4912289;28;20129;-59
2022/05/14 21:05:46;;;;;;;26.98;10.13;;;;;;;15.78;61.10;102260.94;4921164;28;20121;-60
2022/05/14 21:08:11;;;;;;;27.50;9.38;;;;;;;15.81;60.60;102253.97;4913793;28;20157;-60
2022/05/14 21:10:38;;;;;;;25.27;9.60;;;;;;;15.81;60.94;102258.34;4914276;28;20055;-59
2022/05/14 21:13:05;;;;;;;22.73;8.98;;;;;;;15.92;60.45;102258.50;4914991;28;20471;-60
2022/05/14 21:15:31;;;;;;;19.75;7.95;;;;;;;15.86;60.55;102253.16;4916423;28;20138;-59
2022/05/14 21:17:56;;;;;;;29.50;9.05;;;;;;;15.80;61.14;102256.56;4916454;28;20050;-59
2022/05/14 21:20:23;;;;;;;26.75;9.30;;;;;;;15.80;60.88;102254.81;4916843;28;20117;-59
2022/05/14 21:22:49;;;;;;;23.67;9.00;;;;;;;15.78;61.23;102248.69;4912581;28;20445;-58
2022/05/14 21:25:19;;;;;;;24.77;9.45;;;;;;;15.74;61.45;102257.38;4911453;28;20178;-59
2022/05/14 21:27:44;;;;;;;25.60;9.55;;;;;;;15.67;61.96;102258.16;4917937;28;20055;-59
2022/05/14 21:30:11;;;;;;;25.33;9.20;;;;;;;15.67;61.63;102259.91;4919082;28;20057;-60
2022/05/14 21:32:37;;;;;;;25.83;8.95;;;;;;;15.66;61.58;102261.66;4917360;28;20078;-59
2022/05/14 21:37:48;;;;;;;23.60;8.63;;;;;;;15.56;61.67;102266.72;4916482;28;20117;-58
2022/05/14 21:40:17;;;;;;;24.88;8.70;;;;;;;15.56;61.65;102261.47;4913847;28;20039;-59
2022/05/14 21:42:44;;;;;;;21.00;8.25;;;;;;;15.56;61.99;102257.09;4905560;28;20472;-61
2022/05/14 21:45:10;;;;;;;24.85;8.45;;;;;;;15.55;61.60;102262.34;4918841;28;20053;-60
2022/05/14 21:47:35;;;;;;;24.45;8.43;;;;;;;15.46;61.88;102257.78;4918411;28;20477;-60
2022/05/14 21:50:00;;;;;;;21.80;7.90;;;;;;;15.41;61.86;102252.47;4911565;28;20047;-57
2022/05/14 21:52:26;;;;;;;27.42;9.23;;;;;;;15.35;62.15;102252.38;4910588;28;20067;-59
2022/05/14 21:54:51;;;;;;;27.75;8.98;;;;;;;15.29;62.58;102261.91;4914626;28;20055;-59
2022/05/14 21:57:16;;;;;;;23.05;8.18;;;;;;;15.30;62.78;102250.53;4913715;28;20103;-59
2022/05/14 21:59:43;;;;;;;24.45;9.13;;;;;;;15.19;63.38;102255.59;4910665;28;20457;-58
2022/05/14 22:02:11;;;;;;;25.17;8.65;;;;;;;15.22;62.16;102255.66;4916907;28;20539;-59
2022/05/14 22:04:42;;;;;;;26.98;8.63;;;;;;;15.19;62.58;102255.59;4911146;28;20039;-58
2022/05/14 22:07:09;;;;;;;20.40;8.88;;;;;;;15.05;63.61;102258.88;4919459;28;20476;-59
2022/05/14 22:09:35;;;;;;;23.00;8.80;;;;;;;14.97;63.38;102262.25;4914942;28;20377;-57
2022/05/14 22:12:02;;;;;;;21.52;8.45;;;;;;;14.89;64.15;102257.72;4912934;28;20479;-58
2022/05/14 22:14:28;;;;;;;25.33;8.52;;;;;;;14.85;63.91;102259.41;4910919;28;20054;-60
2022/05/14 22:16:53;;;;;;;21.60;7.53;;;;;;;14.80;63.85;102252.31;4909153;28;20047;-58
2022/05/14 22:19:20;;;;;;;24.73;8.07;;;;;;;14.88;62.88;102256.81;4915274;28;20036;-59
2022/05/14 22:21:45;;;;;;;22.33;7.80;;;;;;;14.85;63.46;102253.28;4917858;28;20597;-58
2022/05/14 22:24:10;;;;;;;22.15;7.60;;;;;;;14.84;63.25;102262.00;4914540;28;20055;-57
2022/05/14 22:26:37;;;;;;;31.70;7.78;;;;;;;14.77;63.81;102255.75;4915248;28;20078;-57
2022/05/14 22:29:03;;;;;;;23.60;7.30;;;;;;;14.75;63.63;102256.59;4911086;28;20039;-57
2022/05/14 22:31:28;;;;;;;23.85;7.97;;;;;;;14.67;64.12;102259.06;4916694;28;20483;-59
2022/05/14 22:33:54;;;;;;;27.52;7.43;;;;;;;14.63;64.02;102259.00;4915195;28;20043;-58
2022/05/14 22:36:20;;;;;;;27.60;8.00;;;;;;;14.54;64.67;102257.06;4924387;28;20047;-58
2022/05/14 22:38:45;;;;;;;24.10;7.95;;;;;;;14.47;65.07;102249.94;4913096;28;20054;-59
2022/05/14 22:41:11;;;;;;;22.13;7.50;;;;;;;14.41;65.78;102253.31;4909508;28;20122;-58
2022/05/14 22:43:39;;;;;;;24.67;7.30;;;;;;;14.37;65.74;102256.75;4917439;28;20569;-59
2022/05/14 22:46:07;;;;;;;22.58;7.10;;;;;;;14.34;65.55;102251.38;4921135;28;20126;-58
2022/05/14 22:48:42;;;;;;;26.35;8.05;;;;;;;14.32;65.70;102249.59;4920976;28;20319;-59
2022/05/14 22:51:12;;;;;;;23.13;8.05;;;;;;;14.26;66.10;102249.50;4911563;28;20495;-60
2022/05/14 22:53:39;;;;;;;21.33;7.50;;;;;;;14.21;66.50;102252.00;4920408;28;20542;-59
2022/05/14 22:56:05;;;;;;;23.35;7.88;;;;;;;14.16;66.80;102249.28;4922501;28;20082;-59
2022/05/14 22:58:32;;;;;;;19.55;6.95;;;;;;;14.16;66.72;102251.03;4920320;28;20510;-58
2022/05/14 23:01:00;;;;;;;20.85;6.80;;;;;;;14.13;66.87;102251.84;4909577;28;20344;-57
2022/05/14 23:03:26;;;;;;;24.42;7.47;;;;;;;14.11;66.71;102247.41;4908168;28;20485;-59
2022/05/14 23:05:56;;;;;;;21.35;7.43;;;;;;;14.09;66.75;102243.88;4915207;28;20063;-57
2022/05/14 23:08:21;;;;;;;24.77;7.00;;;;;;;14.08;66.99;102247.38;4918344;28;20055;-59
2022/05/14 23:10:47;;;;;;;18.25;6.85;;;;;;;14.07;67.02;102253.47;4912313;28;20047;-57
2022/05/14 23:13:14;;;;;;;25.98;7.05;;;;;;;14.02;66.99;102244.63;4920348;28;20071;-60
2022/05/14 23:15:39;;;;;;;25.45;6.70;;;;;;;14.00;67.27;102243.69;4911347;28;20070;-60
2022/05/14 23:18:06;;;;;;;24.63;7.40;;;;;;;14.02;67.70;102244.63;4907764;28;20051;-59
2022/05/14 23:20:34;;;;;;;25.30;6.90;;;;;;;13.98;67.88;102241.03;4921488;28;20412;-57
2022/05/14 23:23:00;;;;;;;18.05;6.45;;;;;;;13.98;67.54;102237.53;4915707;28;20055;-58
2022/05/14 23:25:32;;;;;;;19.23;6.93;;;;;;;14.04;67.70;102238.53;4921681;28;20047;-57
2022/05/14 23:27:58;;;;;;;20.33;6.78;;;;;;;14.04;67.97;102238.53;4924484;28;20118;-59
2022/05/14 23:30:26;;;;;;;20.92;6.90;;;;;;;14.05;67.78;102237.69;4921852;28;20504;-59
2022/05/14 23:32:52;;;;;;;19.58;6.75;;;;;;;14.04;67.69;102242.91;4914651;28;20306;-58
2022/05/14 23:35:22;;;;;;;20.13;6.93;;;;;;;13.98;68.00;102230.53;4922259;28;20070;-58
2022/05/14 23:37:47;;;;;;;15.70;5.93;;;;;;;13.96;67.80;102237.53;4924593;28;20494;-62
2022/05/14 23:40:14;;;;;;;19.65;7.55;;;;;;;13.89;68.04;102235.63;4912227;28;20508;-58
2022/05/14 23:42:41;;;;;;;20.45;6.80;;;;;;;13.85;68.32;102233.75;4917113;28;20051;-58
2022/05/14 23:45:09;;;;;;;19.17;6.75;;;;;;;13.80;68.40;102231.03;4918637;28;20400;-60
2022/05/14 23:47:35;;;;;;;19.00;7.03;;;;;;;13.76;68.73;102229.22;4925836;28;20044;-58
2022/05/14 23:50:01;;;;;;;22.85;7.22;;;;;;;13.72;68.59;102229.97;4904822;28;20058;-57
2022/05/14 23:52:26;;;;;;;23.45;7.22;;;;;;;13.73;68.68;102223.00;4923693;28;20035;-58
2022/05/14 23:54:53;;;;;;;24.85;7.25;;;;;;;13.73;68.89;102220.38;4916576;28;20581;-59
2022/05/14 23:57:19;;;;;;;17.75;6.63;;;;;;;13.72;68.84;102221.25;4919320;28;20102;-58
